Terminal Aerodrome Forecast
Issued by NWS

Home | Current Version | Previous Version | Text Only | Print | Product List | Glossary On
Versions: 1 2 3 4 5 6 7 8 9 10 11 12 13 14
000
FTAK31 PAJN 272300
TAFAJN
TAF
PAJN 272320Z 2800/2824 VRB03KT P6SM SCT027 OVC050
     FM280300 09005KT P6SM SCT030 BKN080
     FM281200 10005KT P6SM VCSH SCT010 BKN040 OVC060
     FM281500 11010KT 4SM -SN SCT010 BKN020 OVC040=

USA.gov is the U.S. government's official web portal to all federal, state and local government web resources and services.